Wales, AK

7:02 AM AKST on February 07, 2016 (GMT -0900)
Tin City LRRS | | Change Station
CLOSE
Current Station
Airport
Location: Tin City,
Elevation: 272 ft
Nearby Weather Stations

Elev 272 ft 65.56 °N, 167.92 °W | Updated 7 minutes ago

Light Snow
Light Snow
6 °F
Feels Like -16 °F
N
23
Wind Variable Wind from NNE

Today
High -- | Low -- °F
--% Chance of Precip.
Yesterday
High -- | Low -- °F
Precip. -- in
Pressure 29.75 in
Visibility 0.8 miles
Clouds Overcast 1600 ft
Windchill -16 °F
Dew Point 3 °F
Humidity 91%
Rainfall 0.00 in
Snow Depth Not available.
10:43 AM 6:09 PM
Waning Crescent, 1% visible
METAR PATC 071555Z AUTO 03020KT 3/4SM -SN OVC016 M15/M16 A2972 RMK AO2 SNB1454 SLP072 P0000 T11471159
Pressure 29.75 in
Visibility 0.8 miles
Clouds Overcast 1600 ft
Windchill -16 °F
Dew Point 3 °F
Humidity 91%
Rainfall 0.00 in
Snow Depth Not available.
10:43 AM 6:09 PM
Waning Crescent, 1% visible
METAR PATC 071555Z AUTO 03020KT 3/4SM -SN OVC016 M15/M16 A2972 RMK AO2 SNB1454 SLP072 P0000 T11471159

10-Day Weather Forecast

Almanac

Astronomy

Feb. 07, 2016 Rise Set
Actual Time
Civil Twilight
Nautical Twilight
Astronomical Twilight
Moon
Length of Visible Light
Length of Day
Tomorrow will be .
, % of the Moon is Illuminated

Today's Extremes

State Highs State Lows

Community

WunderPhotos

Upload Photos

1,891,218 photos uploaded!

WunderBlog® & News

Nearby

Air Quality

  Air Quality AQ Index Pollutant
Not available.

Snow Depth

Station Depth Elevation

Earthquake Activity

City Distance Mag. Time & Date
Minimum magnitude displayed is 2.5.

Coastal Water Temperatures

Place Temperature

Stations

Nearby Weather Stations

Station Location Temp. Windchill Dew Point Humidity Wind Precip. Elev Updated Type
                   

Watches & Warnings

There are currently no watches in effect.